Hamilton Island, Australia

4:38 PM AEST on April 29, 2017 (GMT +1000)
Hamilton Island

Weather History for YBHM - May, 2013

Change the Weather History Date:

Thursday, May 9, 2013

  Actual Average Record
Temperature  
Mean Temperature 73 °F -  
Max Temperature 77 °F - - ()
Min Temperature 69 °F - - ()
Cooling Degree Days 8    
Growing Degree Days 23 (Base 50)    
Moisture  
Dew Point 68 °F    
Average Humidity 81    
Maximum Humidity 94    
Minimum Humidity 65    
Precipitation  
Precipitation 0.08 in - - ()
Sea Level Pressure  
Sea Level Pressure 30.11 in    
Wind  
Wind Speed 28 mph ()    
Max Wind Speed 36 mph    
Max Gust Speed 41 mph    
T = Trace of Precipitation, MM = Missing Value Source: Averaged Metar Reports

Daily Weather History Graph

Daily Weather History Graph

Search for Another Location

Airport or City:

Trip Planner

Search our weather history database for the weather conditions in past years. The results will help you decide how hot, cold, wet, or windy it might be!

Date:

Astronomy

May. 09, 2013 Rise Set
Actual Time 6:23 AM AEST 5:37 PM AEST
Civil Twilight 6:00 AM AEST 6:00 PM AEST
Nautical Twilight 5:33 AM AEST 6:27 PM AEST
Astronomical Twilight 5:07 AM AEST 6:53 PM AEST
Moon 5:27 AM AEST (5/9) 5:03 PM AEST (5/9)
Length of Visible Light 12h 00m
Length of Day
11h 14m
Waning Crescent, 1% of the Moon is Illuminated
May 9
Waning Crescent
May 10
New
May 18
First Quarter
May 25
Full
Jun 1
Last Quarter

Hourly Weather History & Observations

Time (AEST) Temp. Dew Point Humidity Pressure Visibility Wind Dir Wind Speed Gust Speed Precip Events Conditions
12:00 AM 74 °F 71 °F 88% 30.11 in - ESE 27.6 mph - -  
12:00 AM 73.4 °F 71.6 °F 94% 30.09 in - ESE 27.6 mph - N/A   Unknown
12:30 AM 75.2 °F 69.8 °F 83% 30.09 in - East 31.1 mph - N/A   Unknown
1:00 AM 75.2 °F 69.8 °F 83% 30.06 in - East 35.7 mph - N/A   Unknown
1:30 AM 75.2 °F 69.8 °F 83% 30.06 in - East 32.2 mph - N/A   Unknown
2:00 AM 75.2 °F 69.8 °F 83% 30.06 in - East 31.1 mph - N/A   Unknown
2:30 AM 75.2 °F 69.8 °F 83% 30.06 in - ESE 31.1 mph - N/A   Unknown
3:00 AM 74 °F 69 °F 81% 30.07 in - ESE 29.9 mph - -  
3:00 AM 73.4 °F 69.8 °F 88% 30.06 in - ESE 29.9 mph - N/A   Unknown
3:30 AM 73.4 °F 69.8 °F 88% 30.06 in - ESE 33.4 mph - N/A   Unknown
4:00 AM 73.4 °F 68.0 °F 83% 30.06 in - ESE 32.2 mph - N/A   Unknown
4:30 AM 73.4 °F 68.0 °F 83% 30.06 in - ESE 32.2 mph - N/A   Unknown
5:00 AM 75.2 °F 68.0 °F 78% 30.09 in - ESE 29.9 mph - N/A   Unknown
5:30 AM 73.4 °F 66.2 °F 78% 30.09 in - ESE 32.2 mph - N/A   Unknown
6:00 AM 74 °F 67 °F 72% 30.11 in - ESE 29.9 mph - -  
6:00 AM 73.4 °F 66.2 °F 78% 30.09 in - ESE 29.9 mph - N/A   Unknown
6:30 AM 75.2 °F 66.2 °F 73% 30.12 in - ESE 28.8 mph - N/A   Unknown
7:00 AM 75.2 °F 68.0 °F 78% 30.12 in - ESE 32.2 mph - N/A   Unknown
7:30 AM 75.2 °F 66.2 °F 73% 30.15 in - ESE 29.9 mph - N/A   Unknown
8:00 AM 75.2 °F 68.0 °F 78% 30.15 in - ESE 31.1 mph - N/A   Unknown
8:30 AM 75.2 °F 66.2 °F 73% 30.15 in - ESE 28.8 mph - N/A   Unknown
9:00 AM 75 °F 66 °F 68% 30.18 in - ESE 27.6 mph - -  
9:00 AM 75.2 °F 66.2 °F 73% 30.18 in - ESE 27.6 mph - N/A   Unknown
9:30 AM 75.2 °F 68.0 °F 78% 30.18 in - ESE 25.3 mph - N/A   Unknown
9:56 AM 73.4 °F 68.0 °F 83% 30.15 in - ESE 26.5 mph 41.4 mph N/A   Unknown
10:00 AM 71.6 °F 68.0 °F 88% 30.18 in - ESE 28.8 mph 41.4 mph N/A   Unknown
10:30 AM 73.4 °F 66.2 °F 78% 30.15 in - ESE 31.1 mph - N/A   Unknown
11:00 AM 75.2 °F 64.4 °F 69% 30.15 in - ESE 32.2 mph - N/A   Unknown
11:30 AM 75.2 °F 68.0 °F 78% 30.15 in - ESE 28.8 mph - N/A   Unknown
12:00 PM 76 °F 66 °F 65% 30.14 in - ESE 28.8 mph - -  
12:00 PM 77.0 °F 66.2 °F 69% 30.12 in - ESE 28.8 mph - N/A   Unknown
12:30 PM 75.2 °F 66.2 °F 73% 30.12 in - ESE 28.8 mph - N/A   Unknown
1:00 PM 77.0 °F 66.2 °F 69% 30.09 in - ESE 27.6 mph - N/A   Unknown
1:30 PM 77.0 °F 66.2 °F 69% 30.09 in - ESE 27.6 mph - N/A   Unknown
2:00 PM 75.2 °F 64.4 °F 69% 30.09 in - ESE 28.8 mph - N/A   Unknown
2:30 PM 75.2 °F 66.2 °F 73% 30.09 in - SE 26.5 mph - N/A   Unknown
3:00 PM 75 °F 69 °F 75% 30.08 in - SE 27.6 mph - -  
3:00 PM 75.2 °F 68.0 °F 78% 30.06 in - SE 27.6 mph - N/A   Unknown
3:30 PM 75.2 °F 68.0 °F 78% 30.06 in - ESE 26.5 mph - N/A   Unknown
4:00 PM 75.2 °F 68.0 °F 78% 30.06 in - SE 25.3 mph - N/A   Unknown
4:30 PM 75.2 °F 68.0 °F 78% 30.09 in - SE 26.5 mph - N/A   Unknown
5:00 PM 73.4 °F 69.8 °F 88% 30.09 in - SE 25.3 mph - N/A   Unknown
5:30 PM 71.6 °F 69.8 °F 94% 30.09 in - SE 28.8 mph - N/A   Unknown
6:00 PM 73 °F 70 °F 86% 30.11 in - SE 28.8 mph - -  
6:00 PM 73.4 °F 69.8 °F 88% 30.09 in - SE 28.8 mph - N/A   Unknown
6:30 PM 73.4 °F 69.8 °F 88% 30.12 in - SE 32.2 mph - N/A   Unknown
7:00 PM 73.4 °F 69.8 °F 88% 30.09 in - SE 33.4 mph - N/A   Unknown
7:30 PM 73.4 °F 69.8 °F 88% 30.12 in - SE 34.5 mph - N/A   Unknown
8:00 PM 71.6 °F 68.0 °F 88% 30.12 in - SE 31.1 mph - N/A   Unknown
8:30 PM 73.4 °F 69.8 °F 88% 30.15 in - SE 28.8 mph - N/A   Unknown
9:00 PM 73 °F 69 °F 85% 30.15 in - SE 28.8 mph - -  
9:00 PM 73.4 °F 69.8 °F 88% 30.15 in - SE 28.8 mph - N/A   Unknown
9:30 PM 73.4 °F 69.8 °F 88% 30.15 in - SE 34.5 mph - N/A   Unknown
10:00 PM 73.4 °F 69.8 °F 88% 30.12 in - SE 35.7 mph - N/A   Unknown
10:20 PM 71.6 °F 69.8 °F 94% 30.12 in - SE 28.8 mph 40.3 mph N/A   Unknown
10:30 PM 73.4 °F 69.8 °F 88% 30.12 in - SE 32.2 mph - N/A   Unknown
11:00 PM 73.4 °F 69.8 °F 88% 30.12 in - SE 31.1 mph - N/A   Unknown
11:30 PM 73.4 °F 69.8 °F 88% 30.12 in - SE 29.9 mph - N/A   Unknown